Terminal Aerodrome Forecast
Issued by NWS

Home | Current Version | Previous Version | Graphics & Text | Print | Product List | Glossary On
Versions: 1 2 3 4 5 6 7 8 9 10 11 12 13 14 15
000
FTUS43 KGRB 262332
TAFMTW
TAF
KMTW 262332Z 2700/2724 VRB03KT P6SM SKC
     FM270800 00000KT 3SM BR SKC
      TEMPO 2709/2713 3/4SM BR SCT002
     FM271300 17003KT 6SM BR SKC
     FM271500 15005KT P6SM SCT250=

USA.gov is the U.S. government's official web portal to all federal, state and local government web resources and services.